sensor_id;sensor_type;location;lat;lon;timestamp;temperature;humidity
8489;DHT22;4281;45.772;12.852;2022-07-09T00:01:29;24.90;99.70
8489;DHT22;4281;45.772;12.852;2022-07-09T00:03:58;25.00;99.50
8489;DHT22;4281;45.772;12.852;2022-07-09T00:06:26;24.90;99.80
8489;DHT22;4281;45.772;12.852;2022-07-09T00:08:56;24.90;99.90
8489;DHT22;4281;45.772;12.852;2022-07-09T00:11:25;24.80;99.90
8489;DHT22;4281;45.772;12.852;2022-07-09T00:13:54;24.80;99.90
8489;DHT22;4281;45.772;12.852;2022-07-09T00:16:22;24.80;99.90
8489;DHT22;4281;45.772;12.852;2022-07-09T00:18:51;24.70;99.90
8489;DHT22;4281;45.772;12.852;2022-07-09T00:21:19;24.70;99.90
8489;DHT22;4281;45.772;12.852;2022-07-09T00:23:47;24.70;99.90
8489;DHT22;4281;45.772;12.852;2022-07-09T00:26:16;24.60;99.90
8489;DHT22;4281;45.772;12.852;2022-07-09T00:28:46;24.70;99.90
8489;DHT22;4281;45.772;12.852;2022-07-09T00:31:15;24.70;99.90
8489;DHT22;4281;45.772;12.852;2022-07-09T00:33:43;24.70;99.90
8489;DHT22;4281;45.772;12.852;2022-07-09T00:36:11;24.70;99.90
8489;DHT22;4281;45.772;12.852;2022-07-09T00:38:40;24.60;99.90
8489;DHT22;4281;45.772;12.852;2022-07-09T00:41:08;24.50;99.90
8489;DHT22;4281;45.772;12.852;2022-07-09T00:43:36;24.20;99.90
8489;DHT22;4281;45.772;12.852;2022-07-09T00:46:06;24.00;99.90
8489;DHT22;4281;45.772;12.852;2022-07-09T00:48:35;23.70;99.90
8489;DHT22;4281;45.772;12.852;2022-07-09T00:51:03;23.60;99.90
8489;DHT22;4281;45.772;12.852;2022-07-09T00:53:32;23.90;99.90
8489;DHT22;4281;45.772;12.852;2022-07-09T00:56:01;23.70;99.90
8489;DHT22;4281;45.772;12.852;2022-07-09T00:58:31;23.80;99.90
8489;DHT22;4281;45.772;12.852;2022-07-09T01:01:00;23.90;99.90
8489;DHT22;4281;45.772;12.852;2022-07-09T01:03:31;23.70;99.90
8489;DHT22;4281;45.772;12.852;2022-07-09T01:05:59;23.80;99.90
8489;DHT22;4281;45.772;12.852;2022-07-09T01:11:09;23.70;99.90
8489;DHT22;4281;45.772;12.852;2022-07-09T01:13:38;23.60;99.90
8489;DHT22;4281;45.772;12.852;2022-07-09T01:16:11;23.80;99.90
8489;DHT22;4281;45.772;12.852;2022-07-09T01:18:45;23.90;99.90
8489;DHT22;4281;45.772;12.852;2022-07-09T01:21:15;23.90;99.90
8489;DHT22;4281;45.772;12.852;2022-07-09T01:23:43;23.30;99.90
8489;DHT22;4281;45.772;12.852;2022-07-09T01:26:12;23.30;99.90
8489;DHT22;4281;45.772;12.852;2022-07-09T01:28:40;23.30;99.90
8489;DHT22;4281;45.772;12.852;2022-07-09T01:31:08;22.70;99.90
8489;DHT22;4281;45.772;12.852;2022-07-09T01:33:37;22.90;99.90
8489;DHT22;4281;45.772;12.852;2022-07-09T01:36:06;23.10;99.90
8489;DHT22;4281;45.772;12.852;2022-07-09T01:38:36;23.40;99.90
8489;DHT22;4281;45.772;12.852;2022-07-09T01:41:04;23.40;99.90
8489;DHT22;4281;45.772;12.852;2022-07-09T01:43:33;23.40;99.90
8489;DHT22;4281;45.772;12.852;2022-07-09T01:46:01;23.10;99.90
8489;DHT22;4281;45.772;12.852;2022-07-09T01:48:30;22.60;99.90
8489;DHT22;4281;45.772;12.852;2022-07-09T01:50:58;22.90;99.90
8489;DHT22;4281;45.772;12.852;2022-07-09T01:53:27;23.10;99.90
8489;DHT22;4281;45.772;12.852;2022-07-09T01:55:57;23.10;99.90
8489;DHT22;4281;45.772;12.852;2022-07-09T01:58:25;23.20;99.90
8489;DHT22;4281;45.772;12.852;2022-07-09T02:00:53;23.10;99.90
8489;DHT22;4281;45.772;12.852;2022-07-09T02:03:22;23.00;99.90
8489;DHT22;4281;45.772;12.852;2022-07-09T02:05:50;22.80;99.90
8489;DHT22;4281;45.772;12.852;2022-07-09T02:08:19;22.80;99.90
8489;DHT22;4281;45.772;12.852;2022-07-09T02:10:47;22.60;99.90
8489;DHT22;4281;45.772;12.852;2022-07-09T02:13:17;22.60;99.90
8489;DHT22;4281;45.772;12.852;2022-07-09T02:15:46;22.90;99.90
8489;DHT22;4281;45.772;12.852;2022-07-09T02:18:14;23.00;99.90
8489;DHT22;4281;45.772;12.852;2022-07-09T02:20:43;23.20;99.90
8489;DHT22;4281;45.772;12.852;2022-07-09T02:23:11;23.40;99.90
8489;DHT22;4281;45.772;12.852;2022-07-09T02:25:40;23.00;99.90
8489;DHT22;4281;45.772;12.852;2022-07-09T02:28:08;23.00;99.90
8489;DHT22;4281;45.772;12.852;2022-07-09T02:30:38;23.00;99.90
8489;DHT22;4281;45.772;12.852;2022-07-09T02:33:06;22.70;99.90
8489;DHT22;4281;45.772;12.852;2022-07-09T02:35:35;22.80;99.90
8489;DHT22;4281;45.772;12.852;2022-07-09T02:38:03;22.60;99.90
8489;DHT22;4281;45.772;12.852;2022-07-09T02:40:31;22.50;99.90
8489;DHT22;4281;45.772;12.852;2022-07-09T02:43:00;22.70;99.90
8489;DHT22;4281;45.772;12.852;2022-07-09T02:45:28;22.80;99.90
8489;DHT22;4281;45.772;12.852;2022-07-09T02:47:57;22.70;99.90
8489;DHT22;4281;45.772;12.852;2022-07-09T02:50:26;22.90;99.90
8489;DHT22;4281;45.772;12.852;2022-07-09T02:52:54;22.60;99.90
8489;DHT22;4281;45.772;12.852;2022-07-09T02:55:23;22.40;99.90
8489;DHT22;4281;45.772;12.852;2022-07-09T02:57:51;22.60;99.90
8489;DHT22;4281;45.772;12.852;2022-07-09T03:00:20;22.90;99.90
8489;DHT22;4281;45.772;12.852;2022-07-09T03:02:48;22.50;99.90
8489;DHT22;4281;45.772;12.852;2022-07-09T03:05:18;22.60;99.90
8489;DHT22;4281;45.772;12.852;2022-07-09T03:07:46;22.10;99.90
8489;DHT22;4281;45.772;12.852;2022-07-09T03:10:15;22.30;99.90
8489;DHT22;4281;45.772;12.852;2022-07-09T03:12:43;22.30;99.90
8489;DHT22;4281;45.772;12.852;2022-07-09T03:15:11;22.20;99.90
8489;DHT22;4281;45.772;12.852;2022-07-09T03:17:43;22.10;99.90
8489;DHT22;4281;45.772;12.852;2022-07-09T03:20:13;22.10;99.90
8489;DHT22;4281;45.772;12.852;2022-07-09T03:22:42;22.10;99.90
8489;DHT22;4281;45.772;12.852;2022-07-09T03:25:11;22.30;99.90
8489;DHT22;4281;45.772;12.852;2022-07-09T03:27:39;22.10;99.90
8489;DHT22;4281;45.772;12.852;2022-07-09T03:30:08;22.20;99.90
8489;DHT22;4281;45.772;12.852;2022-07-09T03:32:37;22.30;99.90
8489;DHT22;4281;45.772;12.852;2022-07-09T03:35:06;22.20;99.90
8489;DHT22;4281;45.772;12.852;2022-07-09T03:37:34;22.40;99.90
8489;DHT22;4281;45.772;12.852;2022-07-09T03:40:05;22.40;99.90
8489;DHT22;4281;45.772;12.852;2022-07-09T03:42:34;22.60;99.90
8489;DHT22;4281;45.772;12.852;2022-07-09T03:45:03;22.40;99.90
8489;DHT22;4281;45.772;12.852;2022-07-09T03:47:31;22.30;99.90
8489;DHT22;4281;45.772;12.852;2022-07-09T03:49:59;22.60;99.70
8489;DHT22;4281;45.772;12.852;2022-07-09T03:52:28;22.70;99.40
8489;DHT22;4281;45.772;12.852;2022-07-09T03:54:56;22.80;98.80
8489;DHT22;4281;45.772;12.852;2022-07-09T03:57:27;22.90;98.30
8489;DHT22;4281;45.772;12.852;2022-07-09T03:59:55;22.60;98.70
8489;DHT22;4281;45.772;12.852;2022-07-09T04:02:24;22.30;99.30
8489;DHT22;4281;45.772;12.852;2022-07-09T04:04:52;22.40;98.90
8489;DHT22;4281;45.772;12.852;2022-07-09T04:07:23;22.40;98.80
8489;DHT22;4281;45.772;12.852;2022-07-09T04:09:53;22.40;98.10
8489;DHT22;4281;45.772;12.852;2022-07-09T04:12:22;22.40;98.10
8489;DHT22;4281;45.772;12.852;2022-07-09T04:14:51;22.50;98.00
8489;DHT22;4281;45.772;12.852;2022-07-09T04:17:20;22.30;98.30
8489;DHT22;4281;45.772;12.852;2022-07-09T04:19:48;22.10;97.90
8489;DHT22;4281;45.772;12.852;2022-07-09T04:22:18;21.40;99.50
8489;DHT22;4281;45.772;12.852;2022-07-09T04:24:46;21.80;99.40
8489;DHT22;4281;45.772;12.852;2022-07-09T04:27:14;21.70;99.20
8489;DHT22;4281;45.772;12.852;2022-07-09T04:29:43;22.10;99.10
8489;DHT22;4281;45.772;12.852;2022-07-09T04:32:13;22.30;97.80
8489;DHT22;4281;45.772;12.852;2022-07-09T04:34:42;22.50;97.80
8489;DHT22;4281;45.772;12.852;2022-07-09T04:37:10;22.60;97.10
8489;DHT22;4281;45.772;12.852;2022-07-09T04:39:39;22.40;97.60
8489;DHT22;4281;45.772;12.852;2022-07-09T04:42:08;22.60;97.70
8489;DHT22;4281;45.772;12.852;2022-07-09T04:44:39;22.50;97.90
8489;DHT22;4281;45.772;12.852;2022-07-09T04:47:09;22.60;98.00
8489;DHT22;4281;45.772;12.852;2022-07-09T04:49:39;22.50;97.80
8489;DHT22;4281;45.772;12.852;2022-07-09T04:52:07;22.20;98.10
8489;DHT22;4281;45.772;12.852;2022-07-09T04:54:36;22.00;98.50
8489;DHT22;4281;45.772;12.852;2022-07-09T04:57:05;22.10;98.80
8489;DHT22;4281;45.772;12.852;2022-07-09T04:59:34;22.10;98.80
8489;DHT22;4281;45.772;12.852;2022-07-09T05:02:04;21.80;99.50
8489;DHT22;4281;45.772;12.852;2022-07-09T05:04:32;21.90;99.90
8489;DHT22;4281;45.772;12.852;2022-07-09T05:07:02;22.10;99.90
8489;DHT22;4281;45.772;12.852;2022-07-09T05:09:32;22.10;99.90
8489;DHT22;4281;45.772;12.852;2022-07-09T05:12:00;22.00;99.90
8489;DHT22;4281;45.772;12.852;2022-07-09T05:14:29;21.80;99.90
8489;DHT22;4281;45.772;12.852;2022-07-09T05:17:03;22.10;99.90
8489;DHT22;4281;45.772;12.852;2022-07-09T05:20:02;21.90;99.90
8489;DHT22;4281;45.772;12.852;2022-07-09T05:22:34;21.70;99.90
8489;DHT22;4281;45.772;12.852;2022-07-09T05:25:03;21.90;99.90
8489;DHT22;4281;45.772;12.852;2022-07-09T05:27:31;21.80;99.90
8489;DHT22;4281;45.772;12.852;2022-07-09T05:30:00;22.00;99.90
8489;DHT22;4281;45.772;12.852;2022-07-09T05:32:28;22.20;99.90
8489;DHT22;4281;45.772;12.852;2022-07-09T05:34:56;22.00;99.90
8489;DHT22;4281;45.772;12.852;2022-07-09T05:37:25;21.90;99.90
8489;DHT22;4281;45.772;12.852;2022-07-09T05:39:57;21.90;99.90
8489;DHT22;4281;45.772;12.852;2022-07-09T05:42:30;22.30;99.90
8489;DHT22;4281;45.772;12.852;2022-07-09T05:45:28;22.10;99.90
8489;DHT22;4281;45.772;12.852;2022-07-09T05:47:56;22.30;99.90
8489;DHT22;4281;45.772;12.852;2022-07-09T05:50:25;22.50;99.90
8489;DHT22;4281;45.772;12.852;2022-07-09T05:52:53;22.10;99.90
8489;DHT22;4281;45.772;12.852;2022-07-09T05:55:23;22.00;99.90
8489;DHT22;4281;45.772;12.852;2022-07-09T05:57:51;22.10;99.90
8489;DHT22;4281;45.772;12.852;2022-07-09T06:00:20;22.30;99.90
8489;DHT22;4281;45.772;12.852;2022-07-09T06:02:48;22.40;99.90
8489;DHT22;4281;45.772;12.852;2022-07-09T06:05:17;22.70;99.90
8489;DHT22;4281;45.772;12.852;2022-07-09T06:07:46;23.00;99.90
8489;DHT22;4281;45.772;12.852;2022-07-09T06:10:15;22.80;99.90
8489;DHT22;4281;45.772;12.852;2022-07-09T06:12:46;22.70;99.90
8489;DHT22;4281;45.772;12.852;2022-07-09T06:15:14;22.60;99.90
8489;DHT22;4281;45.772;12.852;2022-07-09T06:17:42;22.90;99.90
8489;DHT22;4281;45.772;12.852;2022-07-09T06:20:11;23.10;99.90
8489;DHT22;4281;45.772;12.852;2022-07-09T06:22:39;23.20;99.90
8489;DHT22;4281;45.772;12.852;2022-07-09T06:25:08;23.40;99.90
8489;DHT22;4281;45.772;12.852;2022-07-09T06:27:37;23.00;99.40
8489;DHT22;4281;45.772;12.852;2022-07-09T06:30:08;23.10;99.90
8489;DHT22;4281;45.772;12.852;2022-07-09T06:32:37;23.30;99.90
8489;DHT22;4281;45.772;12.852;2022-07-09T06:35:06;23.60;99.70
8489;DHT22;4281;45.772;12.852;2022-07-09T06:37:34;23.90;99.50
8489;DHT22;4281;45.772;12.852;2022-07-09T06:40:03;24.10;99.40
8489;DHT22;4281;45.772;12.852;2022-07-09T06:42:32;24.20;99.90
8489;DHT22;4281;45.772;12.852;2022-07-09T06:45:01;24.60;99.90
8489;DHT22;4281;45.772;12.852;2022-07-09T06:47:31;24.70;99.10
8489;DHT22;4281;45.772;12.852;2022-07-09T06:50:00;24.80;98.10
8489;DHT22;4281;45.772;12.852;2022-07-09T06:52:28;25.00;97.80
8489;DHT22;4281;45.772;12.852;2022-07-09T06:54:57;25.10;96.90
8489;DHT22;4281;45.772;12.852;2022-07-09T06:57:25;25.40;96.70
8489;DHT22;4281;45.772;12.852;2022-07-09T06:59:54;25.50;96.40
8489;DHT22;4281;45.772;12.852;2022-07-09T07:02:22;25.50;95.80
8489;DHT22;4281;45.772;12.852;2022-07-09T07:04:52;25.60;95.80
8489;DHT22;4281;45.772;12.852;2022-07-09T07:07:20;25.50;96.20
8489;DHT22;4281;45.772;12.852;2022-07-09T07:09:48;25.40;97.50
8489;DHT22;4281;45.772;12.852;2022-07-09T07:12:17;25.60;97.80
8489;DHT22;4281;45.772;12.852;2022-07-09T07:14:45;25.50;96.00
8489;DHT22;4281;45.772;12.852;2022-07-09T07:17:13;25.60;95.60
8489;DHT22;4281;45.772;12.852;2022-07-09T07:19:42;25.80;96.10
8489;DHT22;4281;45.772;12.852;2022-07-09T07:22:12;25.80;95.90
8489;DHT22;4281;45.772;12.852;2022-07-09T07:24:40;25.80;96.40
8489;DHT22;4281;45.772;12.852;2022-07-09T07:27:08;25.90;96.80
8489;DHT22;4281;45.772;12.852;2022-07-09T07:29:37;25.60;94.90
8489;DHT22;4281;45.772;12.852;2022-07-09T07:32:06;25.40;95.20
8489;DHT22;4281;45.772;12.852;2022-07-09T07:34:35;25.50;95.00
8489;DHT22;4281;45.772;12.852;2022-07-09T07:37:04;25.40;92.60
8489;DHT22;4281;45.772;12.852;2022-07-09T07:39:33;25.20;92.60
8489;DHT22;4281;45.772;12.852;2022-07-09T07:42:02;25.40;93.40
8489;DHT22;4281;45.772;12.852;2022-07-09T07:44:32;25.20;93.20
8489;DHT22;4281;45.772;12.852;2022-07-09T07:47:01;25.50;93.90
8489;DHT22;4281;45.772;12.852;2022-07-09T07:49:29;24.80;94.10
8489;DHT22;4281;45.772;12.852;2022-07-09T07:51:57;24.80;93.90
8489;DHT22;4281;45.772;12.852;2022-07-09T07:54:26;25.40;93.90
8489;DHT22;4281;45.772;12.852;2022-07-09T07:56:55;25.90;94.40
8489;DHT22;4281;45.772;12.852;2022-07-09T07:59:24;25.90;94.10
8489;DHT22;4281;45.772;12.852;2022-07-09T08:01:52;26.20;94.40
8489;DHT22;4281;45.772;12.852;2022-07-09T08:04:21;26.30;94.30
8489;DHT22;4281;45.772;12.852;2022-07-09T08:06:49;26.50;94.20
8489;DHT22;4281;45.772;12.852;2022-07-09T08:12:11;26.40;93.20
8489;DHT22;4281;45.772;12.852;2022-07-09T08:14:40;26.60;93.80
8489;DHT22;4281;45.772;12.852;2022-07-09T08:17:08;26.70;92.50
8489;DHT22;4281;45.772;12.852;2022-07-09T08:19:36;26.80;93.20
8489;DHT22;4281;45.772;12.852;2022-07-09T08:22:05;26.60;92.00
8489;DHT22;4281;45.772;12.852;2022-07-09T08:24:33;26.70;91.70
8489;DHT22;4281;45.772;12.852;2022-07-09T08:27:02;26.80;91.50
8489;DHT22;4281;45.772;12.852;2022-07-09T08:29:31;26.90;91.30
8489;DHT22;4281;45.772;12.852;2022-07-09T08:32:00;26.80;91.00
8489;DHT22;4281;45.772;12.852;2022-07-09T08:34:29;26.80;92.60
8489;DHT22;4281;45.772;12.852;2022-07-09T08:36:58;26.80;91.70
8489;DHT22;4281;45.772;12.852;2022-07-09T08:39:26;26.70;92.60
8489;DHT22;4281;45.772;12.852;2022-07-09T08:41:54;26.60;91.60
8489;DHT22;4281;45.772;12.852;2022-07-09T08:44:27;26.90;91.90
8489;DHT22;4281;45.772;12.852;2022-07-09T08:47:00;27.00;90.70
8489;DHT22;4281;45.772;12.852;2022-07-09T08:49:31;27.20;91.40
8489;DHT22;4281;45.772;12.852;2022-07-09T08:52:02;27.10;91.30
8489;DHT22;4281;45.772;12.852;2022-07-09T08:54:31;27.20;91.40
8489;DHT22;4281;45.772;12.852;2022-07-09T08:57:00;27.20;91.20
8489;DHT22;4281;45.772;12.852;2022-07-09T08:59:28;26.90;90.00
8489;DHT22;4281;45.772;12.852;2022-07-09T09:02:03;26.70;90.50
8489;DHT22;4281;45.772;12.852;2022-07-09T09:04:32;26.90;90.50
8489;DHT22;4281;45.772;12.852;2022-07-09T09:07:12;27.00;84.10
8489;DHT22;4281;45.772;12.852;2022-07-09T09:12:26;27.10;87.00
8489;DHT22;4281;45.772;12.852;2022-07-09T09:14:56;27.50;87.40
8489;DHT22;4281;45.772;12.852;2022-07-09T09:17:26;27.60;85.40
8489;DHT22;4281;45.772;12.852;2022-07-09T09:19:54;27.30;83.80
8489;DHT22;4281;45.772;12.852;2022-07-09T09:22:23;27.20;86.70
8489;DHT22;4281;45.772;12.852;2022-07-09T09:24:51;27.30;87.70
8489;DHT22;4281;45.772;12.852;2022-07-09T09:27:27;27.50;87.80
8489;DHT22;4281;45.772;12.852;2022-07-09T09:29:58;27.60;88.30
8489;DHT22;4281;45.772;12.852;2022-07-09T09:32:28;27.90;89.30
8489;DHT22;4281;45.772;12.852;2022-07-09T09:35:02;28.30;87.00
8489;DHT22;4281;45.772;12.852;2022-07-09T09:37:30;28.20;84.80
8489;DHT22;4281;45.772;12.852;2022-07-09T09:39:58;28.10;82.80
8489;DHT22;4281;45.772;12.852;2022-07-09T09:42:40;28.20;83.80
8489;DHT22;4281;45.772;12.852;2022-07-09T09:45:09;28.30;83.20
8489;DHT22;4281;45.772;12.852;2022-07-09T09:47:43;28.20;80.90
8489;DHT22;4281;45.772;12.852;2022-07-09T09:50:16;27.90;80.00
8489;DHT22;4281;45.772;12.852;2022-07-09T09:52:46;28.00;80.40
8489;DHT22;4281;45.772;12.852;2022-07-09T09:55:16;27.50;78.80
8489;DHT22;4281;45.772;12.852;2022-07-09T09:57:45;27.40;76.60
8489;DHT22;4281;45.772;12.852;2022-07-09T10:00:14;27.40;76.40
8489;DHT22;4281;45.772;12.852;2022-07-09T10:02:46;27.70;78.40
8489;DHT22;4281;45.772;12.852;2022-07-09T10:05:15;27.80;76.70
8489;DHT22;4281;45.772;12.852;2022-07-09T10:07:44;27.70;75.60
8489;DHT22;4281;45.772;12.852;2022-07-09T10:10:18;28.00;76.80
8489;DHT22;4281;45.772;12.852;2022-07-09T10:12:47;28.30;76.50
8489;DHT22;4281;45.772;12.852;2022-07-09T10:15:22;28.60;75.10
8489;DHT22;4281;45.772;12.852;2022-07-09T10:17:53;28.80;73.10
8489;DHT22;4281;45.772;12.852;2022-07-09T10:20:32;29.10;76.20
8489;DHT22;4281;45.772;12.852;2022-07-09T10:23:02;29.20;75.60
8489;DHT22;4281;45.772;12.852;2022-07-09T10:25:43;29.40;73.60
8489;DHT22;4281;45.772;12.852;2022-07-09T10:28:15;29.30;72.50
8489;DHT22;4281;45.772;12.852;2022-07-09T10:30:43;29.20;73.60
8489;DHT22;4281;45.772;12.852;2022-07-09T10:33:21;29.00;72.20
8489;DHT22;4281;45.772;12.852;2022-07-09T10:35:51;29.10;74.60
8489;DHT22;4281;45.772;12.852;2022-07-09T10:38:20;29.30;71.50
8489;DHT22;4281;45.772;12.852;2022-07-09T10:40:56;29.40;72.30
8489;DHT22;4281;45.772;12.852;2022-07-09T10:43:37;29.30;71.90
8489;DHT22;4281;45.772;12.852;2022-07-09T10:46:10;29.20;71.70
8489;DHT22;4281;45.772;12.852;2022-07-09T10:48:41;29.10;74.40
8489;DHT22;4281;45.772;12.852;2022-07-09T10:51:16;29.10;71.90
8489;DHT22;4281;45.772;12.852;2022-07-09T10:53:45;29.20;72.90
8489;DHT22;4281;45.772;12.852;2022-07-09T10:56:16;29.50;71.20
8489;DHT22;4281;45.772;12.852;2022-07-09T10:58:46;29.50;71.60
8489;DHT22;4281;45.772;12.852;2022-07-09T11:01:19;29.40;71.80
8489;DHT22;4281;45.772;12.852;2022-07-09T11:03:50;29.60;71.20
8489;DHT22;4281;45.772;12.852;2022-07-09T11:06:19;29.70;70.50
8489;DHT22;4281;45.772;12.852;2022-07-09T11:08:48;29.50;70.20
8489;DHT22;4281;45.772;12.852;2022-07-09T11:11:20;29.30;70.50
8489;DHT22;4281;45.772;12.852;2022-07-09T11:13:50;29.40;70.30
8489;DHT22;4281;45.772;12.852;2022-07-09T11:16:22;29.20;70.90
8489;DHT22;4281;45.772;12.852;2022-07-09T11:18:53;29.50;70.80
8489;DHT22;4281;45.772;12.852;2022-07-09T11:21:22;29.50;70.50
8489;DHT22;4281;45.772;12.852;2022-07-09T11:23:51;29.80;71.40
8489;DHT22;4281;45.772;12.852;2022-07-09T11:26:23;29.80;69.60
8489;DHT22;4281;45.772;12.852;2022-07-09T11:28:52;29.00;68.90
8489;DHT22;4281;45.772;12.852;2022-07-09T11:31:20;28.90;69.20
8489;DHT22;4281;45.772;12.852;2022-07-09T11:33:49;28.70;68.60
8489;DHT22;4281;45.772;12.852;2022-07-09T11:36:40;29.00;68.70
8489;DHT22;4281;45.772;12.852;2022-07-09T11:39:09;29.40;70.80
8489;DHT22;4281;45.772;12.852;2022-07-09T11:41:41;29.60;69.30
8489;DHT22;4281;45.772;12.852;2022-07-09T11:44:10;29.60;68.90
8489;DHT22;4281;45.772;12.852;2022-07-09T11:47:00;29.90;70.00
8489;DHT22;4281;45.772;12.852;2022-07-09T11:49:34;30.20;70.80
8489;DHT22;4281;45.772;12.852;2022-07-09T11:52:16;30.20;71.60
8489;DHT22;4281;45.772;12.852;2022-07-09T11:54:55;30.10;69.40
8489;DHT22;4281;45.772;12.852;2022-07-09T11:57:24;30.20;68.50
8489;DHT22;4281;45.772;12.852;2022-07-09T11:59:53;30.20;75.80
8489;DHT22;4281;45.772;12.852;2022-07-09T12:02:25;30.20;80.10
8489;DHT22;4281;45.772;12.852;2022-07-09T12:04:54;30.30;81.00
8489;DHT22;4281;45.772;12.852;2022-07-09T12:07:24;30.20;82.90
8489;DHT22;4281;45.772;12.852;2022-07-09T12:12:34;30.10;82.60
8489;DHT22;4281;45.772;12.852;2022-07-09T12:15:04;30.20;82.00
8489;DHT22;4281;45.772;12.852;2022-07-09T12:17:35;30.10;82.60
8489;DHT22;4281;45.772;12.852;2022-07-09T12:20:06;30.20;83.00
8489;DHT22;4281;45.772;12.852;2022-07-09T12:22:37;30.30;83.40
8489;DHT22;4281;45.772;12.852;2022-07-09T12:25:06;30.30;83.80
8489;DHT22;4281;45.772;12.852;2022-07-09T12:27:35;30.10;84.20
8489;DHT22;4281;45.772;12.852;2022-07-09T12:30:04;30.10;83.80
8489;DHT22;4281;45.772;12.852;2022-07-09T12:32:33;30.10;82.60
8489;DHT22;4281;45.772;12.852;2022-07-09T12:35:01;30.00;86.60
8489;DHT22;4281;45.772;12.852;2022-07-09T12:37:30;30.20;84.60
8489;DHT22;4281;45.772;12.852;2022-07-09T12:40:00;30.30;84.10
8489;DHT22;4281;45.772;12.852;2022-07-09T12:42:29;30.50;82.50
8489;DHT22;4281;45.772;12.852;2022-07-09T12:44:58;30.50;83.80
8489;DHT22;4281;45.772;12.852;2022-07-09T12:47:26;30.50;84.60
8489;DHT22;4281;45.772;12.852;2022-07-09T12:49:54;30.20;84.60
8489;DHT22;4281;45.772;12.852;2022-07-09T12:52:23;30.20;84.80
8489;DHT22;4281;45.772;12.852;2022-07-09T12:54:53;30.20;85.40
8489;DHT22;4281;45.772;12.852;2022-07-09T12:57:23;30.20;84.70
8489;DHT22;4281;45.772;12.852;2022-07-09T12:59:51;30.30;85.30
8489;DHT22;4281;45.772;12.852;2022-07-09T13:02:19;30.30;85.00
8489;DHT22;4281;45.772;12.852;2022-07-09T13:04:51;30.20;85.30
8489;DHT22;4281;45.772;12.852;2022-07-09T13:07:20;30.40;85.10
8489;DHT22;4281;45.772;12.852;2022-07-09T13:09:48;30.60;83.70
8489;DHT22;4281;45.772;12.852;2022-07-09T13:12:17;30.60;84.20
8489;DHT22;4281;45.772;12.852;2022-07-09T13:14:47;30.60;82.50
8489;DHT22;4281;45.772;12.852;2022-07-09T13:17:15;30.60;84.80
8489;DHT22;4281;45.772;12.852;2022-07-09T13:19:59;30.50;83.10
8489;DHT22;4281;45.772;12.852;2022-07-09T13:22:29;30.50;80.70
8489;DHT22;4281;45.772;12.852;2022-07-09T13:24:58;30.60;79.80
8489;DHT22;4281;45.772;12.852;2022-07-09T13:27:26;30.60;83.60
8489;DHT22;4281;45.772;12.852;2022-07-09T13:29:57;30.50;85.70
8489;DHT22;4281;45.772;12.852;2022-07-09T13:32:26;30.50;86.10
8489;DHT22;4281;45.772;12.852;2022-07-09T13:34:55;30.50;84.70
8489;DHT22;4281;45.772;12.852;2022-07-09T13:37:23;30.60;83.50
8489;DHT22;4281;45.772;12.852;2022-07-09T13:39:51;30.50;85.20
8489;DHT22;4281;45.772;12.852;2022-07-09T13:42:20;30.50;85.00
8489;DHT22;4281;45.772;12.852;2022-07-09T13:44:48;30.40;85.00
8489;DHT22;4281;45.772;12.852;2022-07-09T13:47:19;30.50;86.10
8489;DHT22;4281;45.772;12.852;2022-07-09T13:49:48;30.50;84.80
8489;DHT22;4281;45.772;12.852;2022-07-09T13:52:17;30.40;85.70
8489;DHT22;4281;45.772;12.852;2022-07-09T13:54:45;30.50;86.70
8489;DHT22;4281;45.772;12.852;2022-07-09T13:57:14;30.50;86.40
8489;DHT22;4281;45.772;12.852;2022-07-09T13:59:43;30.20;85.30
8489;DHT22;4281;45.772;12.852;2022-07-09T14:02:11;30.10;85.40
8489;DHT22;4281;45.772;12.852;2022-07-09T14:04:48;30.00;86.70
8489;DHT22;4281;45.772;12.852;2022-07-09T14:07:16;30.20;85.80
8489;DHT22;4281;45.772;12.852;2022-07-09T14:09:45;30.20;86.20
8489;DHT22;4281;45.772;12.852;2022-07-09T14:12:13;30.30;83.80
8489;DHT22;4281;45.772;12.852;2022-07-09T14:14:43;29.90;82.50
8489;DHT22;4281;45.772;12.852;2022-07-09T14:17:11;30.10;83.90
8489;DHT22;4281;45.772;12.852;2022-07-09T14:19:40;30.10;83.30
8489;DHT22;4281;45.772;12.852;2022-07-09T14:22:10;30.20;84.80
8489;DHT22;4281;45.772;12.852;2022-07-09T14:24:38;30.10;82.90
8489;DHT22;4281;45.772;12.852;2022-07-09T14:27:07;30.10;83.00
8489;DHT22;4281;45.772;12.852;2022-07-09T14:29:43;30.20;83.30
8489;DHT22;4281;45.772;12.852;2022-07-09T14:32:12;30.20;83.20
8489;DHT22;4281;45.772;12.852;2022-07-09T14:34:40;30.10;85.00
8489;DHT22;4281;45.772;12.852;2022-07-09T14:37:10;30.20;84.70
8489;DHT22;4281;45.772;12.852;2022-07-09T14:39:39;30.20;83.80
8489;DHT22;4281;45.772;12.852;2022-07-09T14:42:08;30.20;84.70
8489;DHT22;4281;45.772;12.852;2022-07-09T14:44:36;30.30;83.30
8489;DHT22;4281;45.772;12.852;2022-07-09T14:47:04;30.20;84.60
8489;DHT22;4281;45.772;12.852;2022-07-09T14:49:33;30.30;83.60
8489;DHT22;4281;45.772;12.852;2022-07-09T14:52:02;30.40;83.80
8489;DHT22;4281;45.772;12.852;2022-07-09T14:54:32;30.50;83.60
8489;DHT22;4281;45.772;12.852;2022-07-09T14:57:00;30.50;83.50
8489;DHT22;4281;45.772;12.852;2022-07-09T14:59:29;30.40;83.90
8489;DHT22;4281;45.772;12.852;2022-07-09T15:01:57;30.30;84.30
8489;DHT22;4281;45.772;12.852;2022-07-09T15:04:26;30.30;83.50
8489;DHT22;4281;45.772;12.852;2022-07-09T15:06:55;30.20;83.80
8489;DHT22;4281;45.772;12.852;2022-07-09T15:09:23;30.10;86.20
8489;DHT22;4281;45.772;12.852;2022-07-09T15:11:53;30.10;83.40
8489;DHT22;4281;45.772;12.852;2022-07-09T15:14:22;30.10;84.40
8489;DHT22;4281;45.772;12.852;2022-07-09T15:16:50;30.10;84.00
8489;DHT22;4281;45.772;12.852;2022-07-09T15:19:19;30.20;85.00
8489;DHT22;4281;45.772;12.852;2022-07-09T15:21:48;30.20;85.50
8489;DHT22;4281;45.772;12.852;2022-07-09T15:24:16;30.20;83.30
8489;DHT22;4281;45.772;12.852;2022-07-09T15:26:46;30.00;83.90
8489;DHT22;4281;45.772;12.852;2022-07-09T15:29:17;30.00;83.20
8489;DHT22;4281;45.772;12.852;2022-07-09T15:31:45;30.10;84.00
8489;DHT22;4281;45.772;12.852;2022-07-09T15:34:14;30.10;82.90
8489;DHT22;4281;45.772;12.852;2022-07-09T15:36:42;30.10;82.80
8489;DHT22;4281;45.772;12.852;2022-07-09T15:39:10;30.10;83.60
8489;DHT22;4281;45.772;12.852;2022-07-09T15:41:39;30.10;82.80
8489;DHT22;4281;45.772;12.852;2022-07-09T15:44:09;30.20;82.90
8489;DHT22;4281;45.772;12.852;2022-07-09T15:46:39;30.10;82.40
8489;DHT22;4281;45.772;12.852;2022-07-09T15:49:08;30.20;81.30
8489;DHT22;4281;45.772;12.852;2022-07-09T15:51:36;30.10;82.00
8489;DHT22;4281;45.772;12.852;2022-07-09T15:54:04;30.00;82.60
8489;DHT22;4281;45.772;12.852;2022-07-09T15:56:33;30.00;83.00
8489;DHT22;4281;45.772;12.852;2022-07-09T15:59:01;29.90;83.20
8489;DHT22;4281;45.772;12.852;2022-07-09T16:01:29;29.90;83.10
8489;DHT22;4281;45.772;12.852;2022-07-09T16:04:00;29.90;81.60
8489;DHT22;4281;45.772;12.852;2022-07-09T16:06:29;30.10;81.90
8489;DHT22;4281;45.772;12.852;2022-07-09T16:08:57;30.10;82.50
8489;DHT22;4281;45.772;12.852;2022-07-09T16:11:26;30.10;81.90